Impacts METAR Board
IDs:

KSTL - St Louis/Lambert Int, MO, US

Updated at: 2300 UTC 19 Jul 2018
Potential Impact None Slight Moderate High
Time 19/11Z 19/12Z 19/13Z 19/14Z 19/15Z 19/16Z 19/17Z 19/18Z 19/19Z 19/20Z 19/21Z 19/22Z 19/23Z
Temp72 74 74 71 74 79 81 81 83 86 87 88 88
Dewpt61 60 59 65 66 67 66 68 69 70 71 71 71
Altim29.96 29.97 29.97 29.96 29.95 29.94 29.94 29.93 29.91 29.88 29.87 29.85 29.83
VIS10 10 10 10 10 10 10 10 10 10 10 10 10
CIG60 60 50 43 41 130 130 95 140 250 250 250 250
CoverBKNBKNOVCOVCOVCOVCBKNOVCOVCBKNBKNBKNBKN
FltCatVFRVFRVFRVFRVFRVFRVFRVFRVFRVFRVFRVFRVFR
WX-----TSRA-TSRA------------------
WDir1201201500120140170160180150150170170
WSpd7 8 7 0 8 9 7 8 9 10 10 12 9
WGst-- -- -- -- -- -- -- -- -- 18 -- -- --
Raw hourly METARs
KSTL 191051Z 12007KT 10SM BKN060 BKN140 BKN250 22/16 A2996 RMK AO2 SLP132 T02220161 $
KSTL 191151Z 12008KT 10SM BKN060 BKN250 23/16 A2997 RMK AO2 SLP134 T02330156 10244 20222 55001
KSTL 191251Z 15007KT 10SM -TSRA BKN050CB BKN090 OVC200 23/15 A2997 RMK AO2 LTG DSNT SW-NW RAB23 TSB28 SLP137 OCNL LTGICCG W-NW TS W-NW MOV NE P0000 T02330150
KSTL 191351Z 00000KT 10SM -TSRA BKN043CB BKN090 OVC200 22/18 A2996 RMK AO2 SLP136 OCNL LTGIC W-NW TS W-NW MOV NE P0000 T02170183
KSTL 191451Z 12008KT 10SM BKN041 BKN100 OVC250 23/19 A2995 RMK AO2 RAE44 TSE09 SLP133 P0002 60002 T02330189 58004
KSTL 191551Z 14009KT 10SM SCT044 BKN130 OVC220 26/19 A2994 RMK AO2 SLP127 T02610194
KSTL 191651Z 17007KT 10SM FEW045 BKN130 BKN250 27/19 A2994 RMK AO2 SLP125 T02720189
KSTL 191751Z 16008KT 10SM SCT060 BKN095 OVC250 27/20 A2993 RMK AO2 LTG DSNT W SLP123 60002 T02720200 10272 20217 56007
KSTL 191851Z 18009KT 10SM SCT050 SCT090 OVC140 28/21 A2991 RMK AO2 SLP115 T02830206
KSTL 191951Z 15010G18KT 10SM FEW050 SCT085 SCT140 BKN250 30/21 A2988 RMK AO2 SLP107 T03000211
KSTL 192051Z 15010KT 10SM FEW033 FEW100 BKN250 31/22 A2987 RMK AO2 SLP103 T03060217 56020
KSTL 192151Z 17012KT 10SM SCT033 SCT110 BKN250 31/22 A2985 RMK AO2 SLP098 T03110217
KSTL 192251Z 17009KT 10SM FEW035 BKN250 31/22 A2983 RMK AO2 SLP088 T03110217



Page loaded:  23:03 UTC  |   04:03 PM Pacific  |   05:03 PM Mountain  |   06:03 PM Central  |   07:03 PM Eastern

 

ADVISORIES

FORECASTS

FORECASTS

OBSERVATIONS

USER TOOLS

ABOUT US